Sns 254 — FT4254 — position and weather

sailwx.info

Track history (hours):
 
Tides and Currents Weather Stations Pressure Air Temp Water Temp Dewpoint Dewpoint Depression Visibility Wind Speed Wind Dir Waves Ship Positions

Sns 254

Last reported at 2018-May-20 09:44 UTC. Time now 2018-May-22 02:12 UTC.
Position N 47°21' W 002°31'.

Length 8 m.

Type: Pilot. MMSI: 227002810.

Date/timePositionNaut miles runAvg speedWind from/ knotsBaromVisibWave heightAir tempDewpointWater temp
2018-May-20 09:44N 47°21' W 002°31'3 8.0
2018-May-20 09:20N 47°22' W 002°35'3 8.2
2018-May-20 08:59N 47°21' W 002°31'4 3.9
2018-May-20 08:02N 47°19' W 002°36'0 1.0
2018-May-20 07:59N 47°19' W 002°36'3 4.9
2018-May-20 07:27N 47°20' W 002°32'  
2018-May-12 10:00N 47°21' W 002°31'0 0.6
2018-May-12 09:30N 47°20' W 002°31'1 1.3
2018-May-12 08:56N 47°20' W 002°32'1 1.5
2018-May-12 08:26N 47°20' W 002°31'0 0.3
2018-May-12 07:59N 47°20' W 002°31'0 0.8
2018-May-12 07:30N 47°21' W 002°31'  
Track history (hours):
 
Tides and Currents Weather Stations Pressure Air Temp Water Temp Dewpoint Dewpoint Depression Visibility Wind Speed Wind Dir Waves Ship Positions

Sns 254

Last reported at 2018-May-20 09:44 UTC. Time now 2018-May-22 02:12 UTC.
Position N 47°21' W 002°31'.

Length 8 m.

Type: Pilot. MMSI: 227002810.

Date/timePositionNaut miles runAvg speedWind from/ knotsBaromVisibWave heightAir tempDewpointWater temp
2018-May-20 09:44N 47°21' W 002°31'3 8.0
2018-May-20 09:20N 47°22' W 002°35'3 8.2
2018-May-20 08:59N 47°21' W 002°31'4 3.9
2018-May-20 08:02N 47°19' W 002°36'0 1.0
2018-May-20 07:59N 47°19' W 002°36'3 4.9
2018-May-20 07:27N 47°20' W 002°32'  
2018-May-12 10:00N 47°21' W 002°31'0 0.6
2018-May-12 09:30N 47°20' W 002°31'1 1.3
2018-May-12 08:56N 47°20' W 002°32'1 1.5
2018-May-12 08:26N 47°20' W 002°31'0 0.3
2018-May-12 07:59N 47°20' W 002°31'0 0.8
2018-May-12 07:30N 47°21' W 002°31'  

Dump ship's entire track history